createdAt,value
2017-10-17T00:00:11.581Z,0
2017-10-17T00:01:24.418Z,0
2017-10-17T00:02:36.975Z,0
2017-10-17T00:03:49.546Z,0
2017-10-17T00:05:01.805Z,0
2017-10-17T00:06:14.383Z,0
2017-10-17T00:07:26.956Z,0
2017-10-17T00:08:39.541Z,0
2017-10-17T00:09:51.797Z,0
2017-10-17T00:11:04.058Z,0
2017-10-17T00:12:16.916Z,0
2017-10-17T00:13:29.485Z,0
2017-10-17T00:14:42.076Z,0
2017-10-17T00:15:54.652Z,0
2017-10-17T00:17:07.236Z,0
2017-10-17T00:18:19.481Z,0
2017-10-17T00:19:32.040Z,0
2017-10-17T00:20:44.281Z,0
2017-10-17T00:21:56.529Z,0
2017-10-17T00:23:09.115Z,0
2017-10-17T00:24:21.035Z,0
2017-10-17T00:25:33.590Z,0
2017-10-17T00:26:46.162Z,0
2017-10-17T00:27:58.732Z,0
2017-10-17T00:29:11.008Z,0
2017-10-17T00:30:23.272Z,0
2017-10-17T00:31:35.844Z,0
2017-10-17T00:32:48.415Z,0
2017-10-17T00:34:01.236Z,0
2017-10-17T00:35:13.821Z,0
2017-10-17T00:36:25.766Z,0
2017-10-17T00:37:37.712Z,0
2017-10-17T00:38:49.958Z,0
2017-10-17T00:40:01.586Z,0
2017-10-17T00:41:13.507Z,0
2017-10-17T00:42:25.445Z,0
2017-10-17T00:43:38.001Z,0
2017-10-17T00:44:50.249Z,0
2017-10-17T00:46:02.506Z,0
2017-10-17T00:47:15.060Z,0
2017-10-17T00:48:27.322Z,0
2017-10-17T00:49:39.256Z,0
2017-10-17T00:50:51.829Z,0
2017-10-17T00:52:03.761Z,0
2017-10-17T00:53:16.338Z,0
2017-10-17T00:54:28.584Z,0
2017-10-17T00:55:40.830Z,0
2017-10-17T00:56:52.767Z,0
2017-10-17T00:58:05.321Z,0
2017-10-17T00:59:17.258Z,0
2017-10-17T01:00:29.839Z,0
2017-10-17T01:01:42.084Z,0
2017-10-17T01:02:54.354Z,0
2017-10-17T01:04:06.617Z,0
2017-10-17T01:05:19.174Z,0
2017-10-17T01:06:31.417Z,0
2017-10-17T01:07:43.992Z,0
2017-10-17T01:08:56.563Z,0
2017-10-17T01:10:08.820Z,0
2017-10-17T01:11:21.395Z,0
2017-10-17T01:12:33.644Z,0
2017-10-17T01:13:46.217Z,0
2017-10-17T01:14:58.803Z,0
2017-10-17T01:16:10.733Z,0
2017-10-17T01:17:23.301Z,0
2017-10-17T01:18:35.538Z,0
2017-10-17T01:19:48.097Z,0
2017-10-17T01:21:00.679Z,0
2017-10-17T01:22:12.610Z,0
2017-10-17T01:23:25.179Z,0
2017-10-17T01:24:37.430Z,0
2017-10-17T01:25:50.021Z,0
2017-10-17T01:27:02.589Z,0
2017-10-17T01:28:14.839Z,0
2017-10-17T01:29:26.788Z,0
2017-10-17T01:30:39.360Z,0
2017-10-17T01:31:51.941Z,0
2017-10-17T01:33:04.498Z,0
2017-10-17T01:34:16.732Z,0
2017-10-17T01:35:28.661Z,0
2017-10-17T01:36:40.909Z,0
2017-10-17T01:37:53.479Z,0
2017-10-17T01:39:06.003Z,0
2017-10-17T01:40:18.244Z,0
2017-10-17T01:41:30.806Z,0
2017-10-17T01:42:43.359Z,0
2017-10-17T01:43:55.911Z,0
2017-10-17T01:45:08.493Z,0
2017-10-17T01:46:21.064Z,0
2017-10-17T01:47:33.309Z,0
2017-10-17T01:48:45.866Z,0
2017-10-17T01:49:58.436Z,0
2017-10-17T01:51:10.697Z,0
2017-10-17T01:52:23.252Z,0
2017-10-17T01:53:35.824Z,0
2017-10-17T01:54:48.084Z,0
2017-10-17T01:56:00.316Z,0
2017-10-17T01:57:12.884Z,0
2017-10-17T01:58:25.135Z,0
2017-10-17T01:59:37.701Z,0
2017-10-17T02:00:50.270Z,0
2017-10-17T02:02:02.516Z,0
2017-10-17T02:03:14.779Z,0
2017-10-17T02:04:27.350Z,0
2017-10-17T02:05:39.582Z,0
2017-10-17T02:06:52.152Z,0
2017-10-17T02:08:04.410Z,0
2017-10-17T02:09:16.963Z,0
2017-10-17T02:10:29.537Z,0
2017-10-17T02:11:42.372Z,0
2017-10-17T02:12:54.626Z,0
2017-10-17T02:14:06.572Z,0
2017-10-17T02:15:19.171Z,0
2017-10-17T02:16:31.413Z,0
2017-10-17T02:17:43.659Z,0
2017-10-17T02:18:56.232Z,0
2017-10-17T02:20:08.803Z,0
2017-10-17T02:21:20.737Z,0
2017-10-17T02:22:33.283Z,0
2017-10-17T02:23:45.829Z,0
2017-10-17T02:24:58.383Z,0
2017-10-17T02:26:10.953Z,0
2017-10-17T02:27:23.501Z,0
2017-10-17T02:28:35.749Z,0
2017-10-17T02:29:48.345Z,0
2017-10-17T02:31:00.928Z,0
2017-10-17T02:32:12.549Z,0
2017-10-17T02:33:25.378Z,0
2017-10-17T02:34:37.965Z,0
2017-10-17T02:35:49.943Z,0
2017-10-17T02:37:02.190Z,0
2017-10-17T02:38:14.777Z,0
2017-10-17T02:39:27.007Z,0
2017-10-17T02:40:39.577Z,0
2017-10-17T02:41:52.148Z,0
2017-10-17T02:43:04.418Z,0
2017-10-17T02:44:16.962Z,0
2017-10-17T02:45:29.525Z,0
2017-10-17T02:46:42.081Z,0
2017-10-17T02:47:54.654Z,0
2017-10-17T02:49:06.574Z,0
2017-10-17T02:50:18.833Z,0
2017-10-17T02:51:31.104Z,0
2017-10-17T02:52:43.334Z,0
2017-10-17T02:53:55.908Z,0
2017-10-17T02:55:08.206Z,0
2017-10-17T02:56:20.135Z,0
2017-10-17T02:57:32.408Z,0
2017-10-17T02:58:44.980Z,0
2017-10-17T02:59:57.549Z,0
2017-10-17T03:01:09.819Z,0
2017-10-17T03:02:22.073Z,0
2017-10-17T03:03:34.644Z,0
2017-10-17T03:04:46.567Z,0
2017-10-17T03:05:58.827Z,0
2017-10-17T03:07:10.784Z,0
2017-10-17T03:08:23.029Z,0
2017-10-17T03:09:35.598Z,0
2017-10-17T03:10:47.844Z,0
2017-10-17T03:12:00.107Z,0
2017-10-17T03:13:12.663Z,0
2017-10-17T03:14:24.582Z,0
2017-10-17T03:15:36.851Z,0
2017-10-17T03:16:49.348Z,0
2017-10-17T03:18:01.596Z,0
2017-10-17T03:19:13.856Z,0
2017-10-17T03:20:26.409Z,0
2017-10-17T03:21:38.654Z,0
2017-10-17T03:22:50.903Z,0
2017-10-17T03:24:03.511Z,0
2017-10-17T03:25:15.766Z,0
2017-10-17T03:26:28.353Z,0
2017-10-17T03:27:40.606Z,0
2017-10-17T03:28:53.177Z,0
2017-10-17T03:30:05.774Z,0
2017-10-17T03:31:18.348Z,0
2017-10-17T03:32:30.916Z,0
2017-10-17T03:33:43.180Z,0
2017-10-17T03:34:55.480Z,0
2017-10-17T03:36:07.729Z,0
2017-10-17T03:37:19.988Z,0
2017-10-17T03:38:32.234Z,0
2017-10-17T03:39:44.789Z,0
2017-10-17T03:40:57.036Z,0
2017-10-17T03:42:08.654Z,0
2017-10-17T03:43:21.225Z,0
2017-10-17T03:44:33.788Z,0
2017-10-17T03:45:46.341Z,0
2017-10-17T03:46:58.916Z,0
2017-10-17T03:48:10.853Z,0
2017-10-17T03:49:23.409Z,0
2017-10-17T03:50:35.973Z,0
2017-10-17T03:51:48.224Z,0
2017-10-17T03:53:00.791Z,0
2017-10-17T03:54:13.064Z,0
2017-10-17T03:55:25.634Z,0
2017-10-17T03:56:37.894Z,0
2017-10-17T03:57:50.126Z,0
2017-10-17T03:59:02.709Z,0
2017-10-17T04:00:14.889Z,0
2017-10-17T04:01:26.826Z,0
2017-10-17T04:02:39.380Z,0
2017-10-17T04:03:50.993Z,0
2017-10-17T04:05:03.242Z,0
2017-10-17T04:06:14.867Z,0
2017-10-17T04:07:27.113Z,0
2017-10-17T04:08:39.675Z,0
2017-10-17T04:09:51.954Z,0
2017-10-17T04:11:04.525Z,0
2017-10-17T04:12:17.111Z,0
2017-10-17T04:13:29.694Z,0
2017-10-17T04:14:42.279Z,0
2017-10-17T04:15:54.851Z,0
2017-10-17T04:17:06.777Z,0
2017-10-17T04:18:19.044Z,0
2017-10-17T04:19:31.286Z,0
2017-10-17T04:20:43.843Z,0
2017-10-17T04:21:56.411Z,0
2017-10-17T04:23:08.672Z,0
2017-10-17T04:24:20.919Z,0
2017-10-17T04:25:33.164Z,0
2017-10-17T04:26:45.437Z,0
2017-10-17T04:27:58.005Z,0
2017-10-17T04:29:10.560Z,0
2017-10-17T04:30:22.484Z,0
2017-10-17T04:31:34.741Z,0
2017-10-17T04:32:47.647Z,0
2017-10-17T04:33:59.909Z,0
2017-10-17T04:35:12.480Z,0
2017-10-17T04:36:25.050Z,0
2017-10-17T04:37:37.009Z,0
2017-10-17T04:38:49.580Z,0
2017-10-17T04:40:01.822Z,0
2017-10-17T04:41:14.407Z,0
2017-10-17T04:42:26.654Z,0
2017-10-17T04:43:38.835Z,0
2017-10-17T04:44:51.403Z,0
2017-10-17T04:46:03.347Z,0
2017-10-17T04:47:15.924Z,0
2017-10-17T04:48:28.181Z,0
2017-10-17T04:49:40.752Z,0
2017-10-17T04:50:53.316Z,0
2017-10-17T04:52:05.895Z,0
2017-10-17T04:53:17.872Z,0
2017-10-17T04:54:30.436Z,0
2017-10-17T04:55:42.692Z,0
2017-10-17T04:56:55.262Z,0
2017-10-17T04:58:07.832Z,0
2017-10-17T04:59:19.775Z,0
2017-10-17T05:00:32.338Z,0
2017-10-17T05:01:44.597Z,0
2017-10-17T05:02:57.167Z,0
2017-10-17T05:04:09.411Z,0
2017-10-17T05:05:22.296Z,0
2017-10-17T05:06:34.541Z,0
2017-10-17T05:07:46.788Z,0
2017-10-17T05:08:59.341Z,0
2017-10-17T05:10:11.263Z,0
2017-10-17T05:11:23.836Z,0
2017-10-17T05:12:36.080Z,0
2017-10-17T05:13:48.327Z,0
2017-10-17T05:15:00.919Z,0
2017-10-17T05:16:13.203Z,0
2017-10-17T05:17:25.477Z,0
2017-10-17T05:18:38.033Z,0
2017-10-17T05:19:50.601Z,0
2017-10-17T05:21:03.191Z,0
2017-10-17T05:22:15.443Z,0
2017-10-17T05:23:27.380Z,0
2017-10-17T05:24:39.302Z,0
2017-10-17T05:25:51.880Z,0
2017-10-17T05:27:04.425Z,0
2017-10-17T05:28:16.671Z,0
2017-10-17T05:29:29.219Z,5
2017-10-17T05:30:41.465Z,5
2017-10-17T05:31:53.385Z,5
2017-10-17T05:33:05.308Z,5
2017-10-17T05:34:17.230Z,5
2017-10-17T05:35:29.800Z,5
2017-10-17T05:36:42.045Z,5
2017-10-17T05:37:54.554Z,10
2017-10-17T05:39:06.479Z,10
2017-10-17T05:40:18.746Z,10
2017-10-17T05:41:30.676Z,10
2017-10-17T05:42:42.936Z,10
2017-10-17T05:43:55.193Z,15
2017-10-17T05:45:07.764Z,15
2017-10-17T05:46:20.359Z,15
2017-10-17T05:47:32.602Z,15
2017-10-17T05:48:45.175Z,20
2017-10-17T05:49:57.435Z,20
2017-10-17T05:51:09.667Z,20
2017-10-17T05:52:21.930Z,20
2017-10-17T05:53:34.505Z,25
2017-10-17T05:54:46.767Z,25
2017-10-17T05:55:59.013Z,25
2017-10-17T05:57:10.934Z,25
2017-10-17T05:58:23.181Z,30
2017-10-17T05:59:35.660Z,30
2017-10-17T06:00:48.245Z,35
2017-10-17T06:02:00.181Z,35
2017-10-17T06:03:12.744Z,35
2017-10-17T06:04:25.291Z,40
2017-10-17T06:05:37.538Z,40
2017-10-17T06:06:50.111Z,40
2017-10-17T06:08:02.682Z,45
2017-10-17T06:09:15.260Z,45
2017-10-17T06:10:26.561Z,45
2017-10-17T06:11:39.117Z,45
2017-10-17T06:12:51.377Z,50
2017-10-17T06:14:03.934Z,50
2017-10-17T06:15:16.205Z,55
2017-10-17T06:16:28.450Z,55
2017-10-17T06:17:41.020Z,55
2017-10-17T06:18:53.588Z,55
2017-10-17T06:20:06.177Z,60
2017-10-17T06:21:18.728Z,60
2017-10-17T06:22:31.301Z,60
2017-10-17T06:23:43.874Z,65
2017-10-17T06:24:56.447Z,65
2017-10-17T06:26:09.013Z,65
2017-10-17T06:27:21.275Z,65
2017-10-17T06:28:33.222Z,70
2017-10-17T06:29:45.791Z,70
2017-10-17T06:30:58.344Z,75
2017-10-17T06:32:10.282Z,75
2017-10-17T06:33:22.532Z,80
2017-10-17T06:34:35.108Z,80
2017-10-17T06:35:47.677Z,85
2017-10-17T06:37:00.249Z,85
2017-10-17T06:38:11.846Z,85
2017-10-17T06:39:24.093Z,90
2017-10-17T06:40:36.353Z,90
2017-10-17T06:41:48.908Z,95
2017-10-17T06:43:01.732Z,95
2017-10-17T06:44:13.972Z,100
2017-10-17T06:45:26.545Z,100
2017-10-17T06:46:38.792Z,100
2017-10-17T06:47:51.662Z,105
2017-10-17T06:49:03.922Z,105
2017-10-17T06:50:15.217Z,105
2017-10-17T06:51:27.466Z,110
2017-10-17T06:52:40.020Z,110
2017-10-17T06:53:52.264Z,110
2017-10-17T06:55:04.532Z,110
2017-10-17T06:56:16.796Z,115
2017-10-17T06:57:28.403Z,115
2017-10-17T06:58:40.973Z,115
2017-10-17T06:59:53.233Z,115
2017-10-17T07:01:05.479Z,120
2017-10-17T07:02:17.733Z,120
2017-10-17T07:03:29.653Z,120
2017-10-17T07:04:42.235Z,120
2017-10-17T07:05:54.479Z,120
2017-10-17T07:07:07.043Z,120
2017-10-17T07:08:18.640Z,125
2017-10-17T07:09:30.581Z,125
2017-10-17T07:10:43.157Z,125
2017-10-17T07:11:55.073Z,130
2017-10-17T07:13:07.348Z,130
2017-10-17T07:14:19.593Z,130
2017-10-17T07:15:32.159Z,135
2017-10-17T07:16:44.747Z,135
2017-10-17T07:17:57.318Z,135
2017-10-17T07:19:09.894Z,135
2017-10-17T07:20:21.822Z,135
2017-10-17T07:21:33.429Z,135
2017-10-17T07:22:46.012Z,135
2017-10-17T07:23:58.587Z,135
2017-10-17T07:25:10.517Z,135
2017-10-17T07:26:22.769Z,135
2017-10-17T07:27:35.343Z,135
2017-10-17T07:28:47.913Z,140
2017-10-17T07:30:00.174Z,140
2017-10-17T07:31:12.746Z,140
2017-10-17T07:32:24.665Z,140
2017-10-17T07:33:37.219Z,140
2017-10-17T07:34:49.464Z,140
2017-10-17T07:36:02.037Z,140
2017-10-17T07:37:14.305Z,145
2017-10-17T07:38:26.903Z,145
2017-10-17T07:39:39.477Z,145
2017-10-17T07:40:51.410Z,145
2017-10-17T07:42:03.980Z,145
2017-10-17T07:43:16.535Z,145
2017-10-17T07:44:28.796Z,150
2017-10-17T07:45:41.370Z,150
2017-10-17T07:46:53.938Z,150
2017-10-17T07:48:06.492Z,150
2017-10-17T07:49:19.066Z,150
2017-10-17T07:50:31.312Z,155
2017-10-17T07:51:43.892Z,155
2017-10-17T07:52:56.452Z,155
2017-10-17T07:54:09.019Z,155
2017-10-17T07:55:21.270Z,155
2017-10-17T07:56:33.839Z,155
2017-10-17T07:57:46.431Z,155
2017-10-17T07:58:59.268Z,160
2017-10-17T08:00:11.839Z,160
2017-10-17T08:01:23.769Z,160
2017-10-17T08:02:36.343Z,160
2017-10-17T08:03:48.264Z,160
2017-10-17T08:05:00.522Z,160
2017-10-17T08:06:13.100Z,165
2017-10-17T08:07:25.371Z,165
2017-10-17T08:08:37.959Z,165
2017-10-17T08:09:50.205Z,165
2017-10-17T08:11:02.434Z,165
2017-10-17T08:12:14.703Z,165
2017-10-17T08:13:26.967Z,170
2017-10-17T08:14:39.223Z,170
2017-10-17T08:15:51.489Z,170
2017-10-17T08:17:04.062Z,170
2017-10-17T08:18:16.635Z,170
2017-10-17T08:19:29.221Z,170
2017-10-17T08:20:42.024Z,170
2017-10-17T08:21:54.272Z,175
2017-10-17T08:23:06.857Z,175
2017-10-17T08:24:19.438Z,175
2017-10-17T08:25:32.008Z,175
2017-10-17T08:26:44.269Z,175
2017-10-17T08:27:56.514Z,175
2017-10-17T08:29:08.745Z,175
2017-10-17T08:30:20.686Z,180
2017-10-17T08:31:33.277Z,180
2017-10-17T08:32:45.531Z,180
2017-10-17T08:33:57.794Z,180
2017-10-17T08:35:10.047Z,185
2017-10-17T08:36:22.616Z,185
2017-10-17T08:37:34.555Z,180
2017-10-17T08:38:46.826Z,180
2017-10-17T08:39:59.095Z,190
2017-10-17T08:41:11.326Z,185
2017-10-17T08:42:23.573Z,185
2017-10-17T08:43:35.821Z,185
2017-10-17T08:44:48.390Z,185
2017-10-17T08:46:00.980Z,185
2017-10-17T08:47:13.229Z,185
2017-10-17T08:48:25.476Z,190
2017-10-17T08:49:38.062Z,195
2017-10-17T08:50:50.669Z,190
2017-10-17T08:52:03.252Z,190
2017-10-17T08:53:15.807Z,190
2017-10-17T08:54:28.378Z,190
2017-10-17T08:55:40.648Z,190
2017-10-17T08:56:52.897Z,190
2017-10-17T08:58:05.468Z,190
2017-10-17T08:59:17.735Z,190
2017-10-17T09:00:29.997Z,190
2017-10-17T09:01:41.947Z,190
2017-10-17T09:02:54.214Z,195
2017-10-17T09:04:06.795Z,190
2017-10-17T09:05:18.737Z,190
2017-10-17T09:06:31.310Z,190
2017-10-17T09:07:43.902Z,190
2017-10-17T09:08:56.149Z,190
2017-10-17T09:10:08.723Z,190
2017-10-17T09:11:21.291Z,195
2017-10-17T09:12:33.538Z,195
2017-10-17T09:13:45.474Z,195
2017-10-17T09:14:58.028Z,195
2017-10-17T09:16:10.626Z,195
2017-10-17T09:17:22.872Z,195
2017-10-17T09:18:35.449Z,195
2017-10-17T09:19:48.027Z,200
2017-10-17T09:20:59.974Z,200
2017-10-17T09:22:12.220Z,200
2017-10-17T09:23:24.472Z,200
2017-10-17T09:24:36.395Z,200
2017-10-17T09:25:48.656Z,200
2017-10-17T09:27:00.585Z,200
2017-10-17T09:28:13.155Z,200
2017-10-17T09:29:25.425Z,200
2017-10-17T09:30:37.675Z,200
2017-10-17T09:31:49.935Z,200
2017-10-17T09:33:02.511Z,200
2017-10-17T09:34:14.761Z,205
2017-10-17T09:35:26.735Z,205
2017-10-17T09:36:38.353Z,205
2017-10-17T09:37:50.598Z,205
2017-10-17T09:39:02.540Z,205
2017-10-17T09:40:14.188Z,205
2017-10-17T09:41:26.758Z,205
2017-10-17T09:42:39.021Z,205
2017-10-17T09:43:51.601Z,205
2017-10-17T09:45:04.171Z,205
2017-10-17T09:46:16.415Z,205
2017-10-17T09:47:28.990Z,210
2017-10-17T09:48:41.234Z,210
2017-10-17T09:49:53.169Z,210
2017-10-17T09:51:05.115Z,210
2017-10-17T09:52:17.393Z,210
2017-10-17T09:53:29.644Z,210
2017-10-17T09:54:42.261Z,210
2017-10-17T09:55:54.832Z,210
2017-10-17T09:57:07.418Z,210
2017-10-17T09:58:19.947Z,215
2017-10-17T09:59:32.210Z,215
2017-10-17T10:00:44.780Z,215
2017-10-17T10:01:57.056Z,215
2017-10-17T10:03:08.996Z,215
2017-10-17T10:04:21.267Z,215
2017-10-17T10:05:33.874Z,215
2017-10-17T10:06:46.446Z,215
2017-10-17T10:07:58.689Z,215
2017-10-17T10:09:11.260Z,215
2017-10-17T10:10:23.521Z,215
2017-10-17T10:11:36.092Z,220
2017-10-17T10:12:48.685Z,215
2017-10-17T10:14:00.932Z,220
2017-10-17T10:15:13.210Z,220
2017-10-17T10:16:25.773Z,220
2017-10-17T10:17:38.044Z,220
2017-10-17T10:18:50.601Z,225
2017-10-17T10:20:03.440Z,225
2017-10-17T10:21:15.365Z,220
2017-10-17T10:22:27.937Z,220
2017-10-17T10:23:40.197Z,220
2017-10-17T10:24:52.768Z,220
2017-10-17T10:26:04.688Z,220
2017-10-17T10:27:16.946Z,215
2017-10-17T10:28:28.881Z,215
2017-10-17T10:29:41.134Z,215
2017-10-17T10:30:53.397Z,220
2017-10-17T10:32:05.974Z,220
2017-10-17T10:33:18.223Z,220
2017-10-17T10:34:30.491Z,220
2017-10-17T10:35:42.106Z,220
2017-10-17T10:36:54.337Z,220
2017-10-17T10:38:06.924Z,220
2017-10-17T10:39:18.573Z,220
2017-10-17T10:40:30.824Z,220
2017-10-17T10:41:43.391Z,225
2017-10-17T10:42:55.961Z,225
2017-10-17T10:44:08.206Z,225
2017-10-17T10:45:20.780Z,225
2017-10-17T10:46:33.350Z,225
2017-10-17T10:47:45.921Z,225
2017-10-17T10:48:58.490Z,225
2017-10-17T10:50:10.736Z,225
2017-10-17T10:51:23.300Z,225
2017-10-17T10:52:35.878Z,225
2017-10-17T10:53:48.463Z,225
2017-10-17T10:55:01.021Z,225
2017-10-17T10:56:13.605Z,225
2017-10-17T10:57:26.175Z,225
2017-10-17T10:58:38.733Z,225
2017-10-17T10:59:51.000Z,225
2017-10-17T11:01:02.945Z,225
2017-10-17T11:02:15.191Z,225
2017-10-17T11:03:27.763Z,225
2017-10-17T11:04:40.338Z,225
2017-10-17T11:05:52.927Z,225
2017-10-17T11:07:05.175Z,225
2017-10-17T11:08:17.435Z,225
2017-10-17T11:09:30.020Z,225
2017-10-17T11:10:42.610Z,230
2017-10-17T11:11:55.184Z,225
2017-10-17T11:13:07.430Z,225
2017-10-17T11:14:20.002Z,225
2017-10-17T11:15:32.569Z,225
2017-10-17T11:16:44.525Z,225
2017-10-17T11:17:56.476Z,225
2017-10-17T11:19:08.754Z,225
2017-10-17T11:20:21.007Z,225
2017-10-17T11:21:32.967Z,225
2017-10-17T11:22:45.222Z,225
2017-10-17T11:23:57.499Z,225
2017-10-17T11:25:10.107Z,225
2017-10-17T11:26:22.355Z,225
2017-10-17T11:27:34.617Z,225
2017-10-17T11:28:47.188Z,225
2017-10-17T11:29:59.441Z,225
2017-10-17T11:31:12.012Z,225
2017-10-17T11:32:24.583Z,230
2017-10-17T11:33:37.183Z,225
2017-10-17T11:34:49.765Z,225
2017-10-17T11:36:02.036Z,225
2017-10-17T11:37:13.343Z,220
2017-10-17T11:38:25.928Z,220
2017-10-17T11:39:38.506Z,220
2017-10-17T11:40:50.773Z,225
2017-10-17T11:42:03.023Z,225
2017-10-17T11:43:14.971Z,225
2017-10-17T11:44:27.217Z,230
2017-10-17T11:45:39.502Z,230
2017-10-17T11:46:51.409Z,225
2017-10-17T11:48:03.978Z,225
2017-10-17T11:49:16.550Z,225
2017-10-17T11:50:29.122Z,230
2017-10-17T11:51:41.715Z,225
2017-10-17T11:52:53.986Z,220
2017-10-17T11:54:05.945Z,220
2017-10-17T11:55:18.525Z,220
2017-10-17T11:56:30.772Z,220
2017-10-17T11:57:43.608Z,220
2017-10-17T11:58:56.187Z,225
2017-10-17T12:00:08.463Z,225
2017-10-17T12:01:21.045Z,220
2017-10-17T12:02:33.316Z,225
2017-10-17T12:03:45.568Z,220
2017-10-17T12:04:57.817Z,220
2017-10-17T12:06:09.761Z,225
2017-10-17T12:07:21.686Z,225
2017-10-17T12:08:34.256Z,225
2017-10-17T12:09:46.839Z,225
2017-10-17T12:10:58.771Z,225
2017-10-17T12:12:10.389Z,225
2017-10-17T12:13:22.328Z,225
2017-10-17T12:14:34.917Z,225
2017-10-17T12:15:47.169Z,225
2017-10-17T12:16:59.401Z,225
2017-10-17T12:18:11.660Z,225
2017-10-17T12:19:23.606Z,225
2017-10-17T12:20:36.183Z,225
2017-10-17T12:21:48.771Z,220
2017-10-17T12:23:01.351Z,225
2017-10-17T12:24:13.938Z,225
2017-10-17T12:25:26.508Z,230
2017-10-17T12:26:39.078Z,225
2017-10-17T12:27:51.644Z,225
2017-10-17T12:29:04.245Z,225
2017-10-17T12:30:16.824Z,225
2017-10-17T12:31:29.095Z,225
2017-10-17T12:32:41.682Z,225
2017-10-17T12:33:54.251Z,225
2017-10-17T12:35:06.506Z,225
2017-10-17T12:36:19.102Z,225
2017-10-17T12:37:31.693Z,225
2017-10-17T12:38:43.960Z,225
2017-10-17T12:39:56.216Z,225
2017-10-17T12:41:08.787Z,230
2017-10-17T12:42:21.036Z,230
2017-10-17T12:43:33.300Z,225
2017-10-17T12:44:45.900Z,220
2017-10-17T12:45:58.475Z,225
2017-10-17T12:47:10.740Z,225
2017-10-17T12:48:22.683Z,220
2017-10-17T12:49:35.272Z,220
2017-10-17T12:50:47.550Z,220
2017-10-17T12:52:00.161Z,225
2017-10-17T12:53:12.116Z,220
2017-10-17T12:54:24.753Z,220
2017-10-17T12:55:37.349Z,220
2017-10-17T12:56:49.952Z,220
2017-10-17T12:58:02.525Z,220
2017-10-17T12:59:14.797Z,215
2017-10-17T13:00:27.393Z,215
2017-10-17T13:01:39.977Z,215
2017-10-17T13:02:52.482Z,215
2017-10-17T13:04:04.745Z,215
2017-10-17T13:05:16.372Z,220
2017-10-17T13:06:28.968Z,210
2017-10-17T13:07:41.555Z,210
2017-10-17T13:08:53.810Z,210
2017-10-17T13:10:06.380Z,210
2017-10-17T13:11:18.954Z,210
2017-10-17T13:12:31.213Z,210
2017-10-17T13:13:43.795Z,210
2017-10-17T13:14:56.040Z,210
2017-10-17T13:16:07.983Z,210
2017-10-17T13:17:20.232Z,210
2017-10-17T13:18:32.803Z,210
2017-10-17T13:19:45.049Z,205
2017-10-17T13:20:57.632Z,205
2017-10-17T13:22:09.589Z,205
2017-10-17T13:23:21.873Z,205
2017-10-17T13:24:34.452Z,205
2017-10-17T13:25:46.099Z,205
2017-10-17T13:26:58.054Z,205
2017-10-17T13:28:10.616Z,205
2017-10-17T13:29:21.611Z,200
2017-10-17T13:30:34.182Z,200
2017-10-17T13:31:46.432Z,200
2017-10-17T13:32:58.998Z,200
2017-10-17T13:34:11.243Z,200
2017-10-17T13:35:23.509Z,195
2017-10-17T13:36:36.083Z,195
2017-10-17T13:37:48.335Z,195
2017-10-17T13:39:00.268Z,200
2017-10-17T13:40:12.546Z,195
2017-10-17T13:41:24.815Z,190
2017-10-17T13:42:37.405Z,190
2017-10-17T13:43:49.977Z,190
2017-10-17T13:45:02.564Z,190
2017-10-17T13:46:14.498Z,185
2017-10-17T13:47:27.072Z,185
2017-10-17T13:48:39.017Z,185
2017-10-17T13:49:50.978Z,185
2017-10-17T13:51:03.258Z,180
2017-10-17T13:52:15.845Z,180
2017-10-17T13:53:28.416Z,180
2017-10-17T13:54:41.010Z,180
2017-10-17T13:55:53.268Z,180
2017-10-17T13:57:05.852Z,175
2017-10-17T13:58:17.473Z,175
2017-10-17T13:59:29.727Z,175
2017-10-17T14:00:41.670Z,175
2017-10-17T14:01:53.609Z,175
2017-10-17T14:03:05.891Z,170
2017-10-17T14:04:18.484Z,170
2017-10-17T14:05:31.058Z,170
2017-10-17T14:06:43.317Z,170
2017-10-17T14:07:55.876Z,170
2017-10-17T14:09:08.458Z,170
2017-10-17T14:10:20.388Z,170
2017-10-17T14:11:32.651Z,165
2017-10-17T14:12:46.028Z,165
2017-10-17T14:13:58.623Z,165
2017-10-17T14:15:10.911Z,165
2017-10-17T14:16:23.483Z,165
2017-10-17T14:17:35.741Z,160
2017-10-17T14:18:48.607Z,160
2017-10-17T14:20:00.882Z,155
2017-10-17T14:21:13.125Z,155
2017-10-17T14:22:25.695Z,155
2017-10-17T14:23:37.632Z,155
2017-10-17T14:24:49.864Z,150
2017-10-17T14:26:01.797Z,150
2017-10-17T14:27:13.742Z,150
2017-10-17T14:28:26.002Z,145
2017-10-17T14:29:38.572Z,145
2017-10-17T14:30:50.838Z,145
2017-10-17T14:32:03.089Z,140
2017-10-17T14:33:15.372Z,140
2017-10-17T14:34:27.632Z,140
2017-10-17T14:35:40.198Z,135
2017-10-17T14:36:52.442Z,135
2017-10-17T14:38:05.032Z,140
2017-10-17T14:39:17.282Z,135
2017-10-17T14:40:29.546Z,130
2017-10-17T14:41:41.816Z,130
2017-10-17T14:42:54.086Z,130
2017-10-17T14:44:06.641Z,125
2017-10-17T14:45:19.212Z,125
2017-10-17T14:46:31.784Z,125
2017-10-17T14:47:44.079Z,125
2017-10-17T14:48:56.027Z,120
2017-10-17T14:50:07.960Z,120
2017-10-17T14:51:20.556Z,120
2017-10-17T14:52:33.204Z,115
2017-10-17T14:53:45.773Z,115
2017-10-17T14:54:58.355Z,115
2017-10-17T14:56:10.952Z,115
2017-10-17T14:57:23.522Z,115
2017-10-17T14:58:36.089Z,110
2017-10-17T14:59:48.351Z,110
2017-10-17T15:01:00.609Z,110
2017-10-17T15:02:12.866Z,105
2017-10-17T15:03:25.145Z,105
2017-10-17T15:04:37.433Z,100
2017-10-17T15:05:49.679Z,100
2017-10-17T15:07:02.261Z,100
2017-10-17T15:08:13.900Z,95
2017-10-17T15:09:26.490Z,95
2017-10-17T15:10:38.444Z,95
2017-10-17T15:11:50.383Z,90
2017-10-17T15:13:02.953Z,90
2017-10-17T15:14:15.207Z,85
2017-10-17T15:15:27.144Z,85
2017-10-17T15:16:38.772Z,85
2017-10-17T15:17:50.393Z,80
2017-10-17T15:19:02.989Z,80
2017-10-17T15:20:15.251Z,75
2017-10-17T15:21:27.505Z,75
2017-10-17T15:22:39.769Z,75
2017-10-17T15:23:52.349Z,70
2017-10-17T15:25:04.933Z,70
2017-10-17T15:26:17.191Z,65
2017-10-17T15:27:29.451Z,65
2017-10-17T15:28:41.396Z,65
2017-10-17T15:29:53.982Z,60
2017-10-17T15:31:06.262Z,60
2017-10-17T15:32:18.208Z,55
2017-10-17T15:33:30.787Z,55
2017-10-17T15:34:43.411Z,50
2017-10-17T15:35:55.677Z,50
2017-10-17T15:37:07.299Z,50
2017-10-17T15:38:19.561Z,45
2017-10-17T15:39:32.144Z,45
2017-10-17T15:40:44.728Z,45
2017-10-17T15:41:56.656Z,40
2017-10-17T15:43:08.905Z,40
2017-10-17T15:44:20.850Z,35
2017-10-17T15:45:33.425Z,35
2017-10-17T15:46:46.040Z,35
2017-10-17T15:47:58.613Z,30
2017-10-17T15:49:10.874Z,30
2017-10-17T15:50:23.131Z,25
2017-10-17T15:51:35.389Z,25
2017-10-17T15:52:47.968Z,25
2017-10-17T15:54:00.540Z,20
2017-10-17T15:55:13.125Z,20
2017-10-17T15:56:25.060Z,20
2017-10-17T15:57:37.316Z,15
2017-10-17T15:58:49.245Z,15
2017-10-17T16:00:01.816Z,15
2017-10-17T16:01:14.063Z,15
2017-10-17T16:02:26.312Z,10
2017-10-17T16:03:38.231Z,10
2017-10-17T16:04:50.804Z,10
2017-10-17T16:06:03.370Z,10
2017-10-17T16:07:15.334Z,10
2017-10-17T16:08:27.266Z,5
2017-10-17T16:09:39.831Z,5
2017-10-17T16:10:52.081Z,5
2017-10-17T16:12:04.340Z,5
2017-10-17T16:13:16.894Z,5
2017-10-17T16:14:29.505Z,5
2017-10-17T16:15:41.735Z,0
2017-10-17T16:16:54.312Z,0
2017-10-17T16:18:06.253Z,0
2017-10-17T16:19:18.194Z,0
2017-10-17T16:20:30.460Z,0
2017-10-17T16:21:43.042Z,0
2017-10-17T16:22:54.975Z,0
2017-10-17T16:24:07.797Z,0
2017-10-17T16:25:20.368Z,0
2017-10-17T16:26:32.313Z,0
2017-10-17T16:27:44.558Z,0
2017-10-17T16:28:57.119Z,0
2017-10-17T16:30:09.050Z,0
2017-10-17T16:31:21.628Z,0
2017-10-17T16:32:34.227Z,0
2017-10-17T16:33:46.471Z,0
2017-10-17T16:34:58.733Z,0
2017-10-17T16:36:11.002Z,0
2017-10-17T16:37:23.561Z,0
2017-10-17T16:38:36.161Z,0
2017-10-17T16:39:49.000Z,0
2017-10-17T16:41:01.570Z,0
2017-10-17T16:42:13.831Z,0
2017-10-17T16:43:26.089Z,0
2017-10-17T16:44:38.673Z,0
2017-10-17T16:45:51.243Z,0
2017-10-17T16:47:03.489Z,0
2017-10-17T16:48:16.084Z,0
2017-10-17T16:49:27.709Z,0
2017-10-17T16:50:40.301Z,0
2017-10-17T16:51:52.886Z,0
2017-10-17T16:53:05.126Z,0
2017-10-17T16:54:17.362Z,0
2017-10-17T16:55:29.919Z,0
2017-10-17T16:56:42.166Z,0
2017-10-17T16:57:54.424Z,0
2017-10-17T16:59:06.995Z,0
2017-10-17T17:00:19.272Z,0
2017-10-17T17:01:31.863Z,0
2017-10-17T17:02:43.808Z,0
2017-10-17T17:03:56.062Z,0
2017-10-17T17:05:08.649Z,0
2017-10-17T17:06:21.230Z,0
2017-10-17T17:07:33.799Z,0